Garden City, New York
Current Conditions -  °F | °C
As of 2:51 PM on Monday 24 Nov 2014 (Local Time) from KJFK Reporting Station
Haze Haze  
Wind Chill: 58°   Ceiling: Unl
Heat Index: 58°   Visibility: 2.5mi
Dew Point: 55°   Wind: 20mph
Humidity: 90%   Direction: 180°S
Pressure: 29.61"   Gusts: 26mph
Location:  40.73°N, 73.64°W
Report Text: KJFK 241951Z 18017G23KT 2 1/2SM BR SCT002 SCT035 14/13 A2961 RMK AO2 PK WND 17026/1900 SFC VIS 6 SLP025 T01440128 $
Loading
Personal Weather Stations






























Interactive Weather Map New forecast layout! Learn more

10-Day Weather Forecast

Advertisements
Track Severe Weather on mobile